sensor_id;sensor_type;location;lat;lon;timestamp;P1;durP1;ratioP1;P2;durP2;ratioP2
27305;SDS011;14792;50.886;6.468;2023-04-03T00:00:48;13.88;;;3.20;;
27305;SDS011;14792;50.886;6.468;2023-04-03T00:03:50;10.63;;;3.12;;
27305;SDS011;14792;50.886;6.468;2023-04-03T00:06:52;6.83;;;2.60;;
27305;SDS011;14792;50.886;6.468;2023-04-03T00:09:53;9.48;;;2.58;;
27305;SDS011;14792;50.886;6.468;2023-04-03T00:12:55;7.67;;;2.50;;
27305;SDS011;14792;50.886;6.468;2023-04-03T00:15:56;10.38;;;2.87;;
27305;SDS011;14792;50.886;6.468;2023-04-03T00:18:58;12.82;;;2.85;;
27305;SDS011;14792;50.886;6.468;2023-04-03T00:22:00;9.13;;;2.58;;
27305;SDS011;14792;50.886;6.468;2023-04-03T00:25:01;13.05;;;2.60;;
27305;SDS011;14792;50.886;6.468;2023-04-03T00:28:03;14.15;;;3.42;;
27305;SDS011;14792;50.886;6.468;2023-04-03T00:31:04;10.28;;;2.60;;
27305;SDS011;14792;50.886;6.468;2023-04-03T00:34:06;15.23;;;2.98;;
27305;SDS011;14792;50.886;6.468;2023-04-03T00:37:08;14.87;;;3.45;;
27305;SDS011;14792;50.886;6.468;2023-04-03T00:40:09;13.15;;;3.45;;
27305;SDS011;14792;50.886;6.468;2023-04-03T00:43:19;12.80;;;3.02;;
27305;SDS011;14792;50.886;6.468;2023-04-03T00:46:18;10.98;;;3.15;;
27305;SDS011;14792;50.886;6.468;2023-04-03T00:49:20;6.25;;;3.15;;
27305;SDS011;14792;50.886;6.468;2023-04-03T00:52:23;11.28;;;2.92;;
27305;SDS011;14792;50.886;6.468;2023-04-03T00:55:23;8.03;;;3.05;;
27305;SDS011;14792;50.886;6.468;2023-04-03T00:58:38;8.25;;;3.37;;
27305;SDS011;14792;50.886;6.468;2023-04-03T01:01:29;9.75;;;2.75;;
27305;SDS011;14792;50.886;6.468;2023-04-03T01:04:32;8.08;;;3.15;;
27305;SDS011;14792;50.886;6.468;2023-04-03T01:07:35;5.78;;;2.72;;
27305;SDS011;14792;50.886;6.468;2023-04-03T01:10:37;10.50;;;3.10;;
27305;SDS011;14792;50.886;6.468;2023-04-03T01:13:38;12.63;;;3.55;;
27305;SDS011;14792;50.886;6.468;2023-04-03T01:16:40;10.78;;;2.98;;
27305;SDS011;14792;50.886;6.468;2023-04-03T01:19:41;12.07;;;3.45;;
27305;SDS011;14792;50.886;6.468;2023-04-03T01:22:48;9.15;;;3.55;;
27305;SDS011;14792;50.886;6.468;2023-04-03T01:25:46;10.32;;;2.85;;
27305;SDS011;14792;50.886;6.468;2023-04-03T01:28:46;13.35;;;3.12;;
27305;SDS011;14792;50.886;6.468;2023-04-03T01:31:58;14.98;;;3.58;;
27305;SDS011;14792;50.886;6.468;2023-04-03T01:34:55;10.88;;;3.85;;
27305;SDS011;14792;50.886;6.468;2023-04-03T01:37:57;16.10;;;3.12;;
27305;SDS011;14792;50.886;6.468;2023-04-03T01:40:59;11.63;;;3.50;;
27305;SDS011;14792;50.886;6.468;2023-04-03T01:44:01;17.85;;;3.55;;
27305;SDS011;14792;50.886;6.468;2023-04-03T01:47:05;14.35;;;4.08;;
27305;SDS011;14792;50.886;6.468;2023-04-03T01:50:04;16.97;;;3.95;;
27305;SDS011;14792;50.886;6.468;2023-04-03T01:53:06;15.55;;;3.20;;
27305;SDS011;14792;50.886;6.468;2023-04-03T01:56:08;10.63;;;2.92;;
27305;SDS011;14792;50.886;6.468;2023-04-03T01:59:09;15.80;;;3.85;;
27305;SDS011;14792;50.886;6.468;2023-04-03T02:02:11;16.00;;;3.40;;
27305;SDS011;14792;50.886;6.468;2023-04-03T02:05:13;15.75;;;3.62;;
27305;SDS011;14792;50.886;6.468;2023-04-03T02:08:15;13.20;;;3.83;;
27305;SDS011;14792;50.886;6.468;2023-04-03T02:11:17;14.83;;;3.72;;
27305;SDS011;14792;50.886;6.468;2023-04-03T02:14:18;10.55;;;3.45;;
27305;SDS011;14792;50.886;6.468;2023-04-03T02:17:20;11.50;;;3.50;;
27305;SDS011;14792;50.886;6.468;2023-04-03T02:20:21;10.63;;;4.15;;
27305;SDS011;14792;50.886;6.468;2023-04-03T02:23:23;10.23;;;3.47;;
27305;SDS011;14792;50.886;6.468;2023-04-03T02:26:24;10.05;;;4.00;;
27305;SDS011;14792;50.886;6.468;2023-04-03T02:29:26;13.65;;;5.78;;
27305;SDS011;14792;50.886;6.468;2023-04-03T02:32:28;12.07;;;4.75;;
27305;SDS011;14792;50.886;6.468;2023-04-03T02:35:29;18.37;;;4.42;;
27305;SDS011;14792;50.886;6.468;2023-04-03T02:38:31;10.65;;;4.62;;
27305;SDS011;14792;50.886;6.468;2023-04-03T02:41:33;12.85;;;4.03;;
27305;SDS011;14792;50.886;6.468;2023-04-03T02:44:34;12.50;;;4.47;;
27305;SDS011;14792;50.886;6.468;2023-04-03T02:47:36;10.28;;;4.65;;
27305;SDS011;14792;50.886;6.468;2023-04-03T02:50:37;14.25;;;4.72;;
27305;SDS011;14792;50.886;6.468;2023-04-03T02:53:39;14.55;;;4.62;;
27305;SDS011;14792;50.886;6.468;2023-04-03T02:56:41;16.20;;;4.67;;
27305;SDS011;14792;50.886;6.468;2023-04-03T02:59:42;19.87;;;5.40;;
27305;SDS011;14792;50.886;6.468;2023-04-03T03:02:44;11.97;;;4.90;;
27305;SDS011;14792;50.886;6.468;2023-04-03T03:05:45;17.25;;;6.70;;
27305;SDS011;14792;50.886;6.468;2023-04-03T03:08:47;18.35;;;6.47;;
27305;SDS011;14792;50.886;6.468;2023-04-03T03:11:49;12.55;;;6.22;;
27305;SDS011;14792;50.886;6.468;2023-04-03T03:14:50;13.68;;;6.50;;
27305;SDS011;14792;50.886;6.468;2023-04-03T03:17:52;13.40;;;6.45;;
27305;SDS011;14792;50.886;6.468;2023-04-03T03:20:54;14.50;;;6.58;;
27305;SDS011;14792;50.886;6.468;2023-04-03T03:23:58;14.20;;;6.60;;
27305;SDS011;14792;50.886;6.468;2023-04-03T03:26:59;14.83;;;7.15;;
27305;SDS011;14792;50.886;6.468;2023-04-03T03:30:01;10.13;;;6.78;;
27305;SDS011;14792;50.886;6.468;2023-04-03T03:33:02;18.75;;;7.20;;
27305;SDS011;14792;50.886;6.468;2023-04-03T03:36:07;10.85;;;6.80;;
27305;SDS011;14792;50.886;6.468;2023-04-03T03:39:09;14.23;;;7.12;;
27305;SDS011;14792;50.886;6.468;2023-04-03T03:42:10;19.57;;;7.97;;
27305;SDS011;14792;50.886;6.468;2023-04-03T03:45:12;12.60;;;7.08;;
27305;SDS011;14792;50.886;6.468;2023-04-03T03:48:13;11.60;;;6.97;;
27305;SDS011;14792;50.886;6.468;2023-04-03T03:51:15;12.25;;;6.83;;
27305;SDS011;14792;50.886;6.468;2023-04-03T03:54:17;15.63;;;7.87;;
27305;SDS011;14792;50.886;6.468;2023-04-03T03:57:18;16.87;;;7.42;;
27305;SDS011;14792;50.886;6.468;2023-04-03T04:00:20;18.87;;;8.25;;
27305;SDS011;14792;50.886;6.468;2023-04-03T04:03:21;14.63;;;7.17;;
27305;SDS011;14792;50.886;6.468;2023-04-03T04:06:23;10.90;;;6.78;;
27305;SDS011;14792;50.886;6.468;2023-04-03T04:09:25;13.13;;;6.55;;
27305;SDS011;14792;50.886;6.468;2023-04-03T04:12:26;9.83;;;6.10;;
27305;SDS011;14792;50.886;6.468;2023-04-03T04:15:28;14.75;;;6.47;;
27305;SDS011;14792;50.886;6.468;2023-04-03T04:18:29;13.28;;;6.47;;
27305;SDS011;14792;50.886;6.468;2023-04-03T04:21:31;12.80;;;6.08;;
27305;SDS011;14792;50.886;6.468;2023-04-03T04:24:32;12.55;;;6.10;;
27305;SDS011;14792;50.886;6.468;2023-04-03T04:27:34;10.20;;;6.03;;
27305;SDS011;14792;50.886;6.468;2023-04-03T04:30:36;15.32;;;7.10;;
27305;SDS011;14792;50.886;6.468;2023-04-03T04:33:37;16.15;;;6.50;;
27305;SDS011;14792;50.886;6.468;2023-04-03T04:36:39;12.95;;;6.67;;
27305;SDS011;14792;50.886;6.468;2023-04-03T04:39:40;11.88;;;5.70;;
27305;SDS011;14792;50.886;6.468;2023-04-03T04:42:42;11.03;;;5.37;;
27305;SDS011;14792;50.886;6.468;2023-04-03T04:45:44;12.88;;;5.83;;
27305;SDS011;14792;50.886;6.468;2023-04-03T04:48:45;11.35;;;5.65;;
27305;SDS011;14792;50.886;6.468;2023-04-03T04:51:47;8.60;;;5.87;;
27305;SDS011;14792;50.886;6.468;2023-04-03T04:54:48;10.18;;;5.35;;
27305;SDS011;14792;50.886;6.468;2023-04-03T04:57:50;13.05;;;5.47;;
27305;SDS011;14792;50.886;6.468;2023-04-03T05:01:01;12.73;;;5.67;;
27305;SDS011;14792;50.886;6.468;2023-04-03T05:04:05;14.98;;;5.40;;
27305;SDS011;14792;50.886;6.468;2023-04-03T05:07:06;8.98;;;5.40;;
27305;SDS011;14792;50.886;6.468;2023-04-03T05:10:08;9.40;;;4.90;;
27305;SDS011;14792;50.886;6.468;2023-04-03T05:13:10;9.10;;;5.40;;
27305;SDS011;14792;50.886;6.468;2023-04-03T05:16:11;11.50;;;5.45;;
27305;SDS011;14792;50.886;6.468;2023-04-03T05:19:13;9.68;;;5.70;;
27305;SDS011;14792;50.886;6.468;2023-04-03T05:22:15;10.18;;;5.55;;
27305;SDS011;14792;50.886;6.468;2023-04-03T05:25:16;13.25;;;5.65;;
27305;SDS011;14792;50.886;6.468;2023-04-03T05:28:18;13.05;;;5.55;;
27305;SDS011;14792;50.886;6.468;2023-04-03T05:31:19;11.33;;;5.17;;
27305;SDS011;14792;50.886;6.468;2023-04-03T05:34:21;11.78;;;5.37;;
27305;SDS011;14792;50.886;6.468;2023-04-03T05:37:23;9.85;;;4.95;;
27305;SDS011;14792;50.886;6.468;2023-04-03T05:40:24;12.70;;;5.33;;
27305;SDS011;14792;50.886;6.468;2023-04-03T05:43:26;9.83;;;5.53;;
27305;SDS011;14792;50.886;6.468;2023-04-03T05:46:27;10.23;;;5.30;;
27305;SDS011;14792;50.886;6.468;2023-04-03T05:49:29;8.25;;;4.83;;
27305;SDS011;14792;50.886;6.468;2023-04-03T05:52:37;11.75;;;4.83;;
27305;SDS011;14792;50.886;6.468;2023-04-03T05:55:38;14.40;;;5.60;;
27305;SDS011;14792;50.886;6.468;2023-04-03T05:58:40;9.78;;;5.45;;
27305;SDS011;14792;50.886;6.468;2023-04-03T06:01:41;8.80;;;4.70;;
27305;SDS011;14792;50.886;6.468;2023-04-03T06:04:43;11.22;;;5.05;;
27305;SDS011;14792;50.886;6.468;2023-04-03T06:07:45;8.18;;;4.37;;
27305;SDS011;14792;50.886;6.468;2023-04-03T06:10:46;11.28;;;4.65;;
27305;SDS011;14792;50.886;6.468;2023-04-03T06:13:48;8.58;;;4.35;;
27305;SDS011;14792;50.886;6.468;2023-04-03T06:16:49;11.43;;;4.80;;
27305;SDS011;14792;50.886;6.468;2023-04-03T06:19:51;11.73;;;4.05;;
27305;SDS011;14792;50.886;6.468;2023-04-03T06:22:53;8.40;;;4.30;;
27305;SDS011;14792;50.886;6.468;2023-04-03T06:25:54;7.40;;;4.25;;
27305;SDS011;14792;50.886;6.468;2023-04-03T06:28:56;9.43;;;4.12;;
27305;SDS011;14792;50.886;6.468;2023-04-03T06:31:58;9.03;;;4.17;;
27305;SDS011;14792;50.886;6.468;2023-04-03T06:34:59;12.35;;;3.90;;
27305;SDS011;14792;50.886;6.468;2023-04-03T06:38:01;6.20;;;3.20;;
27305;SDS011;14792;50.886;6.468;2023-04-03T06:41:02;8.40;;;4.03;;
27305;SDS011;14792;50.886;6.468;2023-04-03T06:44:04;12.65;;;3.72;;
27305;SDS011;14792;50.886;6.468;2023-04-03T06:47:05;8.73;;;3.98;;
27305;SDS011;14792;50.886;6.468;2023-04-03T06:50:08;9.70;;;3.85;;
27305;SDS011;14792;50.886;6.468;2023-04-03T06:53:09;11.35;;;3.83;;
27305;SDS011;14792;50.886;6.468;2023-04-03T06:56:11;10.93;;;3.87;;
27305;SDS011;14792;50.886;6.468;2023-04-03T06:59:12;7.62;;;3.55;;
27305;SDS011;14792;50.886;6.468;2023-04-03T07:02:14;6.87;;;3.20;;
27305;SDS011;14792;50.886;6.468;2023-04-03T07:05:16;10.15;;;3.75;;
27305;SDS011;14792;50.886;6.468;2023-04-03T07:08:17;10.18;;;3.42;;
27305;SDS011;14792;50.886;6.468;2023-04-03T07:11:19;6.17;;;3.22;;
27305;SDS011;14792;50.886;6.468;2023-04-03T07:14:20;5.45;;;3.00;;
27305;SDS011;14792;50.886;6.468;2023-04-03T07:17:22;7.30;;;3.20;;
27305;SDS011;14792;50.886;6.468;2023-04-03T07:20:23;9.80;;;3.47;;
27305;SDS011;14792;50.886;6.468;2023-04-03T07:23:25;10.63;;;3.37;;
27305;SDS011;14792;50.886;6.468;2023-04-03T07:26:27;7.15;;;3.02;;
27305;SDS011;14792;50.886;6.468;2023-04-03T07:29:28;9.45;;;3.00;;
27305;SDS011;14792;50.886;6.468;2023-04-03T07:32:30;8.60;;;3.00;;
27305;SDS011;14792;50.886;6.468;2023-04-03T07:35:31;10.58;;;2.80;;
27305;SDS011;14792;50.886;6.468;2023-04-03T07:38:34;11.90;;;3.08;;
27305;SDS011;14792;50.886;6.468;2023-04-03T07:41:35;8.85;;;2.83;;
27305;SDS011;14792;50.886;6.468;2023-04-03T07:44:36;10.25;;;2.65;;
27305;SDS011;14792;50.886;6.468;2023-04-03T07:47:38;7.65;;;2.67;;
27305;SDS011;14792;50.886;6.468;2023-04-03T07:50:40;6.75;;;2.92;;
27305;SDS011;14792;50.886;6.468;2023-04-03T07:53:41;7.53;;;2.90;;
27305;SDS011;14792;50.886;6.468;2023-04-03T07:56:43;8.38;;;3.22;;
27305;SDS011;14792;50.886;6.468;2023-04-03T07:59:44;12.53;;;3.12;;
27305;SDS011;14792;50.886;6.468;2023-04-03T08:02:46;7.55;;;2.95;;
27305;SDS011;14792;50.886;6.468;2023-04-03T08:05:48;8.98;;;3.10;;
27305;SDS011;14792;50.886;6.468;2023-04-03T08:08:49;5.80;;;2.55;;
27305;SDS011;14792;50.886;6.468;2023-04-03T08:11:50;8.60;;;3.37;;
27305;SDS011;14792;50.886;6.468;2023-04-03T08:14:52;13.08;;;2.77;;
27305;SDS011;14792;50.886;6.468;2023-04-03T08:17:54;9.58;;;2.85;;
27305;SDS011;14792;50.886;6.468;2023-04-03T08:20:55;8.75;;;2.35;;
27305;SDS011;14792;50.886;6.468;2023-04-03T08:23:57;7.30;;;2.75;;
27305;SDS011;14792;50.886;6.468;2023-04-03T08:26:58;9.03;;;3.20;;
27305;SDS011;14792;50.886;6.468;2023-04-03T08:30:00;7.67;;;2.83;;
27305;SDS011;14792;50.886;6.468;2023-04-03T08:33:02;7.97;;;3.10;;
27305;SDS011;14792;50.886;6.468;2023-04-03T08:36:04;8.95;;;2.87;;
27305;SDS011;14792;50.886;6.468;2023-04-03T08:39:05;5.53;;;2.65;;
27305;SDS011;14792;50.886;6.468;2023-04-03T08:48:46;9.43;;;3.22;;
27305;SDS011;14792;50.886;6.468;2023-04-03T08:51:48;8.25;;;2.60;;
27305;SDS011;14792;50.886;6.468;2023-04-03T08:54:54;8.03;;;2.65;;
27305;SDS011;14792;50.886;6.468;2023-04-03T08:58:04;7.78;;;2.92;;
27305;SDS011;14792;50.886;6.468;2023-04-03T09:01:05;6.95;;;2.15;;
27305;SDS011;14792;50.886;6.468;2023-04-03T09:04:17;4.92;;;2.00;;
27305;SDS011;14792;50.886;6.468;2023-04-03T09:07:20;10.32;;;2.33;;
27305;SDS011;14792;50.886;6.468;2023-04-03T09:10:18;5.75;;;2.15;;
27305;SDS011;14792;50.886;6.468;2023-04-03T09:13:28;3.72;;;1.85;;
27305;SDS011;14792;50.886;6.468;2023-04-03T09:23:33;7.37;;;1.87;;
27305;SDS011;14792;50.886;6.468;2023-04-03T09:26:45;6.83;;;1.80;;
27305;SDS011;14792;50.886;6.468;2023-04-03T09:32:58;4.87;;;1.52;;
27305;SDS011;14792;50.886;6.468;2023-04-03T09:36:00;7.30;;;1.70;;
27305;SDS011;14792;50.886;6.468;2023-04-03T09:39:05;3.00;;;1.32;;
27305;SDS011;14792;50.886;6.468;2023-04-03T09:42:14;4.95;;;1.32;;
27305;SDS011;14792;50.886;6.468;2023-04-03T09:45:18;8.55;;;2.12;;
27305;SDS011;14792;50.886;6.468;2023-04-03T09:51:14;5.15;;;1.55;;
27305;SDS011;14792;50.886;6.468;2023-04-03T09:57:32;6.72;;;1.25;;
27305;SDS011;14792;50.886;6.468;2023-04-03T10:00:37;8.18;;;2.47;;
27305;SDS011;14792;50.886;6.468;2023-04-03T10:03:39;8.65;;;1.92;;
27305;SDS011;14792;50.886;6.468;2023-04-03T10:06:40;6.62;;;1.60;;
27305;SDS011;14792;50.886;6.468;2023-04-03T10:09:59;5.85;;;1.57;;
27305;SDS011;14792;50.886;6.468;2023-04-03T10:13:05;4.35;;;1.67;;
27305;SDS011;14792;50.886;6.468;2023-04-03T10:16:14;11.97;;;2.10;;
27305;SDS011;14792;50.886;6.468;2023-04-03T10:19:29;8.63;;;1.82;;
27305;SDS011;14792;50.886;6.468;2023-04-03T10:29:19;6.45;;;1.60;;
27305;SDS011;14792;50.886;6.468;2023-04-03T10:32:29;8.45;;;1.72;;
27305;SDS011;14792;50.886;6.468;2023-04-03T10:35:44;8.28;;;1.70;;
27305;SDS011;14792;50.886;6.468;2023-04-03T10:39:20;4.03;;;1.67;;
27305;SDS011;14792;50.886;6.468;2023-04-03T10:42:22;4.22;;;1.50;;
27305;SDS011;14792;50.886;6.468;2023-04-03T10:45:31;2.87;;;1.60;;
27305;SDS011;14792;50.886;6.468;2023-04-03T10:48:52;3.62;;;1.40;;
27305;SDS011;14792;50.886;6.468;2023-04-03T10:55:24;6.78;;;1.30;;
27305;SDS011;14792;50.886;6.468;2023-04-03T10:58:30;6.60;;;1.67;;
27305;SDS011;14792;50.886;6.468;2023-04-03T11:01:34;3.00;;;1.37;;
27305;SDS011;14792;50.886;6.468;2023-04-03T11:04:36;6.85;;;1.60;;
27305;SDS011;14792;50.886;6.468;2023-04-03T11:07:37;3.80;;;1.50;;
27305;SDS011;14792;50.886;6.468;2023-04-03T11:10:48;5.80;;;2.00;;
27305;SDS011;14792;50.886;6.468;2023-04-03T11:17:08;2.72;;;1.45;;
27305;SDS011;14792;50.886;6.468;2023-04-03T11:23:26;9.03;;;1.60;;
27305;SDS011;14792;50.886;6.468;2023-04-03T11:26:29;4.33;;;1.35;;
27305;SDS011;14792;50.886;6.468;2023-04-03T11:29:31;6.47;;;1.60;;
27305;SDS011;14792;50.886;6.468;2023-04-03T11:32:44;2.90;;;1.12;;
27305;SDS011;14792;50.886;6.468;2023-04-03T11:35:42;3.90;;;1.20;;
27305;SDS011;14792;50.886;6.468;2023-04-03T11:38:43;5.97;;;1.37;;
27305;SDS011;14792;50.886;6.468;2023-04-03T11:41:44;7.47;;;1.50;;
27305;SDS011;14792;50.886;6.468;2023-04-03T11:44:46;4.25;;;1.20;;
27305;SDS011;14792;50.886;6.468;2023-04-03T11:47:49;3.42;;;1.12;;
27305;SDS011;14792;50.886;6.468;2023-04-03T11:50:49;3.58;;;1.32;;
27305;SDS011;14792;50.886;6.468;2023-04-03T11:53:51;5.58;;;1.40;;
27305;SDS011;14792;50.886;6.468;2023-04-03T11:56:52;3.37;;;1.15;;
27305;SDS011;14792;50.886;6.468;2023-04-03T11:59:54;6.50;;;1.32;;
27305;SDS011;14792;50.886;6.468;2023-04-03T12:02:55;5.40;;;1.45;;
27305;SDS011;14792;50.886;6.468;2023-04-03T12:09:29;3.47;;;1.30;;
27305;SDS011;14792;50.886;6.468;2023-04-03T12:25:00;2.85;;;1.17;;
27305;SDS011;14792;50.886;6.468;2023-04-03T12:28:04;6.15;;;1.30;;
27305;SDS011;14792;50.886;6.468;2023-04-03T12:31:04;5.00;;;1.30;;
27305;SDS011;14792;50.886;6.468;2023-04-03T12:47:19;3.05;;;0.88;;
27305;SDS011;14792;50.886;6.468;2023-04-03T12:50:19;3.80;;;1.12;;
27305;SDS011;14792;50.886;6.468;2023-04-03T12:53:19;6.40;;;1.45;;
27305;SDS011;14792;50.886;6.468;2023-04-03T12:56:27;5.30;;;1.22;;
27305;SDS011;14792;50.886;6.468;2023-04-03T12:59:25;5.95;;;0.93;;
27305;SDS011;14792;50.886;6.468;2023-04-03T13:02:28;4.15;;;0.88;;
27305;SDS011;14792;50.886;6.468;2023-04-03T13:05:31;4.70;;;1.20;;
27305;SDS011;14792;50.886;6.468;2023-04-03T13:08:33;7.97;;;1.42;;
27305;SDS011;14792;50.886;6.468;2023-04-03T13:11:35;6.65;;;1.30;;
27305;SDS011;14792;50.886;6.468;2023-04-03T13:14:36;6.35;;;1.32;;
27305;SDS011;14792;50.886;6.468;2023-04-03T13:17:41;6.95;;;1.45;;
27305;SDS011;14792;50.886;6.468;2023-04-03T13:20:42;7.00;;;1.25;;
27305;SDS011;14792;50.886;6.468;2023-04-03T13:23:45;3.15;;;1.22;;
27305;SDS011;14792;50.886;6.468;2023-04-03T13:26:45;4.67;;;1.02;;
27305;SDS011;14792;50.886;6.468;2023-04-03T13:29:50;7.87;;;1.25;;
27305;SDS011;14792;50.886;6.468;2023-04-03T13:32:51;3.77;;;1.30;;
27305;SDS011;14792;50.886;6.468;2023-04-03T13:36:13;2.25;;;1.05;;
27305;SDS011;14792;50.886;6.468;2023-04-03T13:42:22;3.20;;;1.15;;
27305;SDS011;14792;50.886;6.468;2023-04-03T13:45:20;5.03;;;1.20;;
27305;SDS011;14792;50.886;6.468;2023-04-03T13:48:26;3.10;;;1.22;;
27305;SDS011;14792;50.886;6.468;2023-04-03T13:51:28;3.90;;;1.12;;
27305;SDS011;14792;50.886;6.468;2023-04-03T13:54:31;3.77;;;0.98;;
27305;SDS011;14792;50.886;6.468;2023-04-03T13:57:30;3.37;;;1.00;;
27305;SDS011;14792;50.886;6.468;2023-04-03T14:03:45;2.45;;;0.93;;
27305;SDS011;14792;50.886;6.468;2023-04-03T14:06:45;1.80;;;0.90;;
27305;SDS011;14792;50.886;6.468;2023-04-03T14:09:46;1.72;;;1.10;;
27305;SDS011;14792;50.886;6.468;2023-04-03T14:12:47;6.25;;;1.05;;
27305;SDS011;14792;50.886;6.468;2023-04-03T14:15:49;10.72;;;1.50;;
27305;SDS011;14792;50.886;6.468;2023-04-03T14:18:50;3.62;;;1.30;;
27305;SDS011;14792;50.886;6.468;2023-04-03T14:21:52;8.10;;;1.45;;
27305;SDS011;14792;50.886;6.468;2023-04-03T14:24:54;6.12;;;1.02;;
27305;SDS011;14792;50.886;6.468;2023-04-03T14:27:55;4.72;;;1.05;;
27305;SDS011;14792;50.886;6.468;2023-04-03T14:30:57;7.08;;;1.50;;
27305;SDS011;14792;50.886;6.468;2023-04-03T14:33:58;9.50;;;1.30;;
27305;SDS011;14792;50.886;6.468;2023-04-03T14:37:00;3.75;;;1.17;;
27305;SDS011;14792;50.886;6.468;2023-04-03T14:40:06;10.10;;;1.15;;
27305;SDS011;14792;50.886;6.468;2023-04-03T14:43:05;2.10;;;1.07;;
27305;SDS011;14792;50.886;6.468;2023-04-03T14:46:05;4.67;;;1.10;;
27305;SDS011;14792;50.886;6.468;2023-04-03T14:49:15;2.42;;;0.90;;
27305;SDS011;14792;50.886;6.468;2023-04-03T14:52:21;2.90;;;1.20;;
27305;SDS011;14792;50.886;6.468;2023-04-03T14:55:23;7.10;;;1.20;;
27305;SDS011;14792;50.886;6.468;2023-04-03T14:58:24;4.45;;;1.25;;
27305;SDS011;14792;50.886;6.468;2023-04-03T15:01:26;4.50;;;1.10;;
27305;SDS011;14792;50.886;6.468;2023-04-03T15:04:27;4.60;;;1.27;;
27305;SDS011;14792;50.886;6.468;2023-04-03T15:07:29;3.80;;;1.17;;
27305;SDS011;14792;50.886;6.468;2023-04-03T15:10:30;6.30;;;1.35;;
27305;SDS011;14792;50.886;6.468;2023-04-03T15:13:32;5.92;;;1.27;;
27305;SDS011;14792;50.886;6.468;2023-04-03T15:16:33;7.55;;;1.42;;
27305;SDS011;14792;50.886;6.468;2023-04-03T15:19:38;3.47;;;1.47;;
27305;SDS011;14792;50.886;6.468;2023-04-03T15:22:39;5.37;;;1.37;;
27305;SDS011;14792;50.886;6.468;2023-04-03T15:25:47;3.25;;;1.10;;
27305;SDS011;14792;50.886;6.468;2023-04-03T15:28:48;3.05;;;1.20;;
27305;SDS011;14792;50.886;6.468;2023-04-03T15:31:50;4.62;;;1.47;;
27305;SDS011;14792;50.886;6.468;2023-04-03T15:34:51;3.33;;;1.27;;
27305;SDS011;14792;50.886;6.468;2023-04-03T15:37:53;6.17;;;1.60;;
27305;SDS011;14792;50.886;6.468;2023-04-03T15:40:55;4.75;;;1.42;;
27305;SDS011;14792;50.886;6.468;2023-04-03T15:43:56;7.33;;;1.40;;
27305;SDS011;14792;50.886;6.468;2023-04-03T15:46:58;5.30;;;1.20;;
27305;SDS011;14792;50.886;6.468;2023-04-03T15:49:59;3.33;;;1.35;;
27305;SDS011;14792;50.886;6.468;2023-04-03T15:53:01;2.45;;;1.15;;
27305;SDS011;14792;50.886;6.468;2023-04-03T15:56:02;3.33;;;1.32;;
27305;SDS011;14792;50.886;6.468;2023-04-03T15:59:04;4.35;;;1.22;;
27305;SDS011;14792;50.886;6.468;2023-04-03T16:02:06;6.25;;;1.70;;
27305;SDS011;14792;50.886;6.468;2023-04-03T16:05:08;4.60;;;1.40;;
27305;SDS011;14792;50.886;6.468;2023-04-03T16:08:09;7.22;;;1.30;;
27305;SDS011;14792;50.886;6.468;2023-04-03T16:11:10;7.35;;;1.50;;
27305;SDS011;14792;50.886;6.468;2023-04-03T16:14:12;4.58;;;1.35;;
27305;SDS011;14792;50.886;6.468;2023-04-03T16:17:14;7.30;;;2.20;;
27305;SDS011;14792;50.886;6.468;2023-04-03T16:20:15;6.37;;;2.83;;
27305;SDS011;14792;50.886;6.468;2023-04-03T16:23:17;8.43;;;4.17;;
27305;SDS011;14792;50.886;6.468;2023-04-03T16:26:18;17.85;;;10.45;;
27305;SDS011;14792;50.886;6.468;2023-04-03T16:29:20;7.90;;;3.33;;
27305;SDS011;14792;50.886;6.468;2023-04-03T16:32:22;6.25;;;2.75;;
27305;SDS011;14792;50.886;6.468;2023-04-03T16:35:23;4.33;;;1.65;;
27305;SDS011;14792;50.886;6.468;2023-04-03T16:38:25;4.03;;;1.55;;
27305;SDS011;14792;50.886;6.468;2023-04-03T16:41:26;4.37;;;1.57;;
27305;SDS011;14792;50.886;6.468;2023-04-03T16:44:28;7.87;;;1.95;;
27305;SDS011;14792;50.886;6.468;2023-04-03T16:47:29;6.33;;;1.47;;
27305;SDS011;14792;50.886;6.468;2023-04-03T16:50:31;6.42;;;1.57;;
27305;SDS011;14792;50.886;6.468;2023-04-03T16:53:33;3.30;;;1.90;;
27305;SDS011;14792;50.886;6.468;2023-04-03T16:56:34;5.55;;;1.82;;
27305;SDS011;14792;50.886;6.468;2023-04-03T16:59:36;4.60;;;1.30;;
27305;SDS011;14792;50.886;6.468;2023-04-03T17:02:38;4.60;;;1.70;;
27305;SDS011;14792;50.886;6.468;2023-04-03T17:05:39;2.98;;;1.30;;
27305;SDS011;14792;50.886;6.468;2023-04-03T17:08:41;7.60;;;1.47;;
27305;SDS011;14792;50.886;6.468;2023-04-03T17:11:45;5.97;;;1.30;;
27305;SDS011;14792;50.886;6.468;2023-04-03T17:14:47;5.08;;;1.98;;
27305;SDS011;14792;50.886;6.468;2023-04-03T17:17:49;5.95;;;1.30;;
27305;SDS011;14792;50.886;6.468;2023-04-03T17:20:51;2.45;;;1.12;;
27305;SDS011;14792;50.886;6.468;2023-04-03T17:23:57;6.47;;;1.30;;
27305;SDS011;14792;50.886;6.468;2023-04-03T17:26:56;4.53;;;2.20;;
27305;SDS011;14792;50.886;6.468;2023-04-03T17:29:58;16.82;;;6.72;;
27305;SDS011;14792;50.886;6.468;2023-04-03T17:33:00;4.67;;;1.57;;
27305;SDS011;14792;50.886;6.468;2023-04-03T17:36:02;5.87;;;1.90;;
27305;SDS011;14792;50.886;6.468;2023-04-03T17:39:03;6.33;;;1.80;;
27305;SDS011;14792;50.886;6.468;2023-04-03T17:42:04;6.47;;;1.72;;
27305;SDS011;14792;50.886;6.468;2023-04-03T17:45:06;5.35;;;1.40;;
27305;SDS011;14792;50.886;6.468;2023-04-03T17:48:08;7.45;;;1.75;;
27305;SDS011;14792;50.886;6.468;2023-04-03T17:51:10;6.33;;;2.00;;
27305;SDS011;14792;50.886;6.468;2023-04-03T17:54:11;10.32;;;3.55;;
27305;SDS011;14792;50.886;6.468;2023-04-03T17:57:12;4.22;;;1.67;;
27305;SDS011;14792;50.886;6.468;2023-04-03T18:00:14;5.50;;;2.00;;
27305;SDS011;14792;50.886;6.468;2023-04-03T18:03:16;6.55;;;2.80;;
27305;SDS011;14792;50.886;6.468;2023-04-03T18:06:18;11.85;;;2.17;;
27305;SDS011;14792;50.886;6.468;2023-04-03T18:09:20;7.35;;;2.08;;
27305;SDS011;14792;50.886;6.468;2023-04-03T18:12:21;6.58;;;2.87;;
27305;SDS011;14792;50.886;6.468;2023-04-03T18:15:23;6.90;;;2.22;;
27305;SDS011;14792;50.886;6.468;2023-04-03T18:18:24;5.25;;;1.92;;
27305;SDS011;14792;50.886;6.468;2023-04-03T18:21:26;6.85;;;2.22;;
27305;SDS011;14792;50.886;6.468;2023-04-03T18:24:27;5.10;;;1.95;;
27305;SDS011;14792;50.886;6.468;2023-04-03T18:27:29;15.10;;;3.40;;
27305;SDS011;14792;50.886;6.468;2023-04-03T18:30:31;7.87;;;3.10;;
27305;SDS011;14792;50.886;6.468;2023-04-03T18:33:32;9.23;;;2.40;;
27305;SDS011;14792;50.886;6.468;2023-04-03T18:36:34;7.95;;;2.75;;
27305;SDS011;14792;50.886;6.468;2023-04-03T18:39:35;7.33;;;2.08;;
27305;SDS011;14792;50.886;6.468;2023-04-03T18:42:37;10.60;;;1.90;;
27305;SDS011;14792;50.886;6.468;2023-04-03T18:45:38;8.48;;;2.17;;
27305;SDS011;14792;50.886;6.468;2023-04-03T18:48:40;6.53;;;2.47;;
27305;SDS011;14792;50.886;6.468;2023-04-03T18:51:42;7.10;;;2.40;;
27305;SDS011;14792;50.886;6.468;2023-04-03T18:54:43;6.28;;;2.10;;
27305;SDS011;14792;50.886;6.468;2023-04-03T18:57:45;7.47;;;1.50;;
27305;SDS011;14792;50.886;6.468;2023-04-03T19:00:47;4.00;;;1.85;;
27305;SDS011;14792;50.886;6.468;2023-04-03T19:03:48;6.60;;;1.90;;
27305;SDS011;14792;50.886;6.468;2023-04-03T19:06:50;7.55;;;1.90;;
27305;SDS011;14792;50.886;6.468;2023-04-03T19:09:51;6.97;;;1.47;;
27305;SDS011;14792;50.886;6.468;2023-04-03T19:12:53;8.23;;;1.80;;
27305;SDS011;14792;50.886;6.468;2023-04-03T19:15:55;11.95;;;1.98;;
27305;SDS011;14792;50.886;6.468;2023-04-03T19:18:56;9.50;;;1.72;;
27305;SDS011;14792;50.886;6.468;2023-04-03T19:21:58;11.33;;;2.25;;
27305;SDS011;14792;50.886;6.468;2023-04-03T19:25:00;19.48;;;2.72;;
27305;SDS011;14792;50.886;6.468;2023-04-03T19:28:02;7.55;;;1.87;;